createdAt,value
2022-08-10T00:04:02.071Z,99305.31
2022-08-10T00:09:07.445Z,99308.06
2022-08-10T00:14:12.418Z,99304.78
2022-08-10T00:19:19.946Z,99298.78
2022-08-10T00:24:24.870Z,99306.59
2022-08-10T00:29:29.767Z,99299.72
2022-08-10T00:34:37.589Z,99300.34
2022-08-10T00:39:42.581Z,99295.53
2022-08-10T00:44:51.090Z,99293.28
2022-08-10T00:49:58.739Z,99289.97
2022-08-10T00:55:05.214Z,99297.88
2022-08-10T01:00:11.904Z,99302.16
2022-08-10T01:05:20.695Z,99294.91
2022-08-10T01:10:36.907Z,99297.69
2022-08-10T01:15:55.722Z,99293.34
2022-08-10T01:21:28.356Z,99294.44
2022-08-10T01:27:10.067Z,99297.59
2022-08-10T01:32:18.001Z,99292.72
2022-08-10T01:37:27.232Z,99284.94
2022-08-10T01:42:35.895Z,99297.78
2022-08-10T01:47:57.976Z,99297.50
2022-08-10T01:53:07.917Z,99304.19
2022-08-10T01:58:14.588Z,99295.94
2022-08-10T02:03:25.455Z,99302.09
2022-08-10T02:08:33.888Z,99301.59
2022-08-10T02:19:27.954Z,99305.03
2022-08-10T02:24:33.965Z,99305.72
2022-08-10T02:29:42.275Z,99301.81
2022-08-10T02:34:51.973Z,99296.03
2022-08-10T02:39:57.219Z,99297.78
2022-08-10T02:45:22.200Z,99304.25
2022-08-10T02:50:38.630Z,99298.78
2022-08-10T02:55:49.343Z,99300.53
2022-08-10T03:00:58.551Z,99299.00
2022-08-10T03:06:12.219Z,99297.47
2022-08-10T03:12:35.081Z,99299.84
2022-08-10T03:16:57.393Z,99304.06
2022-08-10T03:22:05.958Z,99308.50
2022-08-10T03:27:12.028Z,99306.44
2022-08-10T03:32:17.364Z,99312.38
2022-08-10T03:37:24.922Z,99320.63
2022-08-10T03:42:31.436Z,99318.06
2022-08-10T03:47:39.651Z,99322.09
2022-08-10T03:52:48.178Z,99324.13
2022-08-10T03:57:53.897Z,99327.84
2022-08-10T04:03:00.828Z,99326.16
2022-08-10T04:08:08.777Z,99326.16
2022-08-10T04:13:13.660Z,99337.88
2022-08-10T04:18:18.643Z,99331.25
2022-08-10T04:23:28.334Z,99344.63
2022-08-10T04:28:34.160Z,99344.63
2022-08-10T04:33:44.074Z,99343.47
2022-08-10T04:38:52.806Z,99336.69
2022-08-10T04:43:57.885Z,99346.53
2022-08-10T04:49:02.792Z,99346.53
2022-08-10T04:54:15.820Z,99347.41
2022-08-10T04:59:20.806Z,99344.81
2022-08-10T05:04:34.790Z,99351.28
2022-08-10T05:10:02.275Z,99351.13
2022-08-10T05:15:13.673Z,99349.97
2022-08-10T05:20:19.275Z,99356.59
2022-08-10T05:25:27.794Z,99353.38
2022-08-10T05:30:34.369Z,99352.38
2022-08-10T05:35:56.602Z,99363.28
2022-08-10T05:41:08.709Z,99366.84
2022-08-10T05:46:16.948Z,99361.25
2022-08-10T05:51:30.273Z,99365.00
2022-08-10T05:56:53.185Z,99361.28
2022-08-10T06:02:30.934Z,99373.66
2022-08-10T06:07:35.361Z,99377.72
2022-08-10T06:12:55.280Z,99374.50
2022-08-10T06:18:03.022Z,99377.56
2022-08-10T06:23:09.837Z,99382.50
2022-08-10T06:28:19.746Z,99388.41
2022-08-10T06:33:26.925Z,99390.25
2022-08-10T06:38:35.289Z,99380.50
2022-08-10T06:43:48.398Z,99387.22
2022-08-10T06:48:55.990Z,99389.34
2022-08-10T06:54:05.135Z,99389.06
2022-08-10T06:59:21.665Z,99388.00
2022-08-10T07:04:32.609Z,99384.06
2022-08-10T07:09:40.479Z,99383.63
2022-08-10T07:14:50.370Z,99383.22
2022-08-10T07:20:00.861Z,99383.81
2022-08-10T07:25:08.748Z,99382.84
2022-08-10T07:30:17.497Z,99383.28
2022-08-10T07:35:24.624Z,99387.13
2022-08-10T07:40:29.928Z,99380.06
2022-08-10T07:45:40.562Z,99391.84
2022-08-10T07:50:46.546Z,99381.47
2022-08-10T07:56:05.593Z,99385.81
2022-08-10T08:01:22.941Z,99380.91
2022-08-10T08:06:28.882Z,99390.31
2022-08-10T08:11:36.771Z,99378.63
2022-08-10T08:16:49.202Z,99385.91
2022-08-10T08:24:07.958Z,99383.53
2022-08-10T08:27:21.195Z,99379.78
2022-08-10T08:32:30.444Z,99396.91
2022-08-10T08:38:32.297Z,99390.41
2022-08-10T08:43:31.927Z,99384.50
2022-08-10T08:48:57.795Z,99380.34
2022-08-10T08:54:18.182Z,99374.22
2022-08-10T08:59:38.545Z,99374.63
2022-08-10T09:05:03.907Z,99365.69
2022-08-10T09:10:22.035Z,99374.34
2022-08-10T09:15:40.427Z,99369.22
2022-08-10T09:20:52.803Z,99361.75
2022-08-10T09:26:04.741Z,99359.75
2022-08-10T09:31:21.976Z,99363.06
2022-08-10T09:36:40.000Z,99357.47
2022-08-10T09:41:57.608Z,99351.19
2022-08-10T09:47:17.113Z,99348.50
2022-08-10T09:52:33.102Z,99342.16
2022-08-10T09:57:46.516Z,99330.25
2022-08-10T10:03:04.873Z,99329.34
2022-08-10T10:08:26.486Z,99316.47
2022-08-10T10:14:01.608Z,99314.63
2022-08-10T10:19:18.265Z,99310.03
2022-08-10T10:24:39.458Z,99310.78
2022-08-10T10:29:56.748Z,99298.75
2022-08-10T10:35:08.768Z,99292.56
2022-08-10T10:40:18.675Z,99280.38
2022-08-10T10:45:31.766Z,99279.06
2022-08-10T10:50:44.217Z,99270.28
2022-08-10T10:56:14.574Z,99277.69
2022-08-10T11:01:31.606Z,99279.63
2022-08-10T11:06:51.485Z,99268.09
2022-08-10T11:12:04.993Z,99272.56
2022-08-10T11:17:17.554Z,99266.41
2022-08-10T11:22:30.324Z,99266.28
2022-08-10T11:27:50.820Z,99263.00
2022-08-10T11:33:10.544Z,99260.50
2022-08-10T11:38:34.435Z,99261.41
2022-08-10T11:43:54.832Z,99264.59
2022-08-10T11:49:06.828Z,99254.53
2022-08-10T11:54:17.458Z,99256.75
2022-08-10T11:59:40.101Z,99255.00
2022-08-10T12:04:52.015Z,99252.06
2022-08-10T12:10:09.417Z,99250.56
2022-08-10T12:15:26.162Z,99237.00
2022-08-10T12:20:35.968Z,99239.53
2022-08-10T12:25:56.841Z,99233.19
2022-08-10T12:31:09.407Z,99224.91
2022-08-10T12:36:22.892Z,99223.22
2022-08-10T12:41:44.377Z,99215.88
2022-08-10T12:47:01.571Z,99213.59
2022-08-10T12:52:22.409Z,99207.34
2022-08-10T12:57:29.424Z,99212.63
2022-08-10T13:02:45.235Z,99204.16
2022-08-10T13:08:26.556Z,99191.78
2022-08-10T13:13:36.571Z,99190.41
2022-08-10T13:18:48.981Z,99181.00
2022-08-10T13:24:04.469Z,99181.38
2022-08-10T13:29:24.402Z,99170.28
2022-08-10T13:34:42.333Z,99161.91
2022-08-10T13:39:59.108Z,99155.75
2022-08-10T13:45:12.013Z,99151.47
2022-08-10T13:50:33.387Z,99148.13
2022-08-10T13:55:48.697Z,99146.59
2022-08-10T14:01:02.491Z,99135.47
2022-08-10T14:06:15.545Z,99138.06
2022-08-10T14:11:24.111Z,99136.78
2022-08-10T14:16:30.933Z,99127.28
2022-08-10T14:21:43.253Z,99132.31
2022-08-10T14:26:50.154Z,99128.03
2022-08-10T14:32:01.892Z,99122.63
2022-08-10T14:37:12.921Z,99124.34
2022-08-10T14:42:27.511Z,99119.19
2022-08-10T14:48:02.086Z,99107.84
2022-08-10T14:53:10.273Z,99115.06
2022-08-10T14:58:23.070Z,99114.94
2022-08-10T15:03:58.915Z,99111.53
2022-08-10T15:09:05.524Z,99102.84
2022-08-10T15:14:41.163Z,99106.88
2022-08-10T15:20:02.380Z,99099.72
2022-08-10T15:25:19.353Z,99097.84
2022-08-10T15:30:34.974Z,99092.53
2022-08-10T15:35:54.580Z,99083.03
2022-08-10T15:41:07.838Z,99080.03
2022-08-10T15:46:22.068Z,99075.59
2022-08-10T15:51:53.425Z,99069.22
2022-08-10T15:57:05.638Z,99069.22
2022-08-10T16:02:17.533Z,99070.59
2022-08-10T16:07:45.885Z,99057.13
2022-08-10T16:13:01.743Z,99059.34
2022-08-10T16:18:11.531Z,99050.31
2022-08-10T16:23:25.998Z,99047.03
2022-08-10T16:28:38.783Z,99055.94
2022-08-10T16:33:53.801Z,99047.88
2022-08-10T16:39:01.395Z,99045.22
2022-08-10T16:44:13.284Z,99043.72
2022-08-10T16:49:20.932Z,99048.06
2022-08-10T16:54:28.205Z,99049.25
2022-08-10T16:59:39.479Z,99047.28
2022-08-10T17:04:47.329Z,99055.03
2022-08-10T17:09:54.083Z,99059.47
2022-08-10T17:15:09.978Z,99053.91
2022-08-10T17:20:31.726Z,99052.53
2022-08-10T17:25:45.910Z,99048.09
2022-08-10T17:31:03.443Z,99050.31
2022-08-10T17:36:09.680Z,99040.31
2022-08-10T17:41:16.551Z,99050.06
2022-08-10T17:46:27.955Z,99031.72
2022-08-10T17:51:34.324Z,99038.34
2022-08-10T17:56:40.285Z,99044.91
2022-08-10T18:01:58.822Z,99042.19
2022-08-10T18:07:08.419Z,99039.66
2022-08-10T18:12:17.829Z,99048.16
2022-08-10T18:17:38.486Z,99044.66
2022-08-10T18:22:48.124Z,99051.09
2022-08-10T18:28:03.833Z,99049.19
2022-08-10T18:33:17.582Z,99055.09
2022-08-10T18:38:24.741Z,99060.06
2022-08-10T18:44:05.868Z,99058.03
2022-08-10T18:49:09.584Z,99062.34
2022-08-10T18:54:34.511Z,99064.44
2022-08-10T19:00:09.381Z,99067.00
2022-08-10T19:05:32.120Z,99064.63
2022-08-10T19:10:43.832Z,99070.50
2022-08-10T19:15:59.334Z,99072.09
2022-08-10T19:21:16.141Z,99072.41
2022-08-10T19:26:41.942Z,99075.34
2022-08-10T19:31:57.063Z,99076.41
2022-08-10T19:37:15.293Z,99079.19
2022-08-10T19:42:31.480Z,99080.66
2022-08-10T19:47:52.062Z,99077.91
2022-08-10T19:53:09.539Z,99078.66
2022-08-10T19:58:22.613Z,99072.44
2022-08-10T20:03:35.199Z,99067.06
2022-08-10T20:08:50.139Z,99073.94
2022-08-10T20:14:03.287Z,99072.75
2022-08-10T20:19:14.415Z,99077.69
2022-08-10T20:24:31.880Z,99082.81
2022-08-10T20:29:57.636Z,99082.50
2022-08-10T20:35:10.834Z,99091.91
2022-08-10T20:40:26.343Z,99086.91
2022-08-10T20:45:52.109Z,99080.63
2022-08-10T20:51:05.337Z,99078.31
2022-08-10T20:56:20.221Z,99078.13
2022-08-10T21:02:05.945Z,99079.84
2022-08-10T21:07:28.385Z,99075.88
2022-08-10T21:12:58.682Z,99069.13
2022-08-10T21:18:28.109Z,99066.22
2022-08-10T21:23:40.078Z,99065.84
2022-08-10T21:29:11.430Z,99060.84
2022-08-10T21:34:54.464Z,99074.34
2022-08-10T21:46:20.667Z,99074.56
2022-08-10T21:52:02.253Z,99065.31
2022-08-10T21:57:28.126Z,99068.28
2022-08-10T22:03:05.964Z,99074.38
2022-08-10T22:08:26.785Z,99073.34
2022-08-10T22:13:46.691Z,99067.91
2022-08-10T22:19:16.562Z,99070.03
2022-08-10T22:24:42.292Z,99063.72
2022-08-10T22:30:06.632Z,99057.81
2022-08-10T22:31:25.014Z,99065.72
2022-08-10T22:35:55.066Z,99073.34
2022-08-10T22:41:24.163Z,99060.28
2022-08-10T22:46:46.203Z,99059.13
2022-08-10T22:51:59.435Z,99068.13
2022-08-10T22:57:18.438Z,99065.16
2022-08-10T23:02:33.810Z,99061.72
2022-08-10T23:07:50.431Z,99061.91
2022-08-10T23:13:00.925Z,99065.00
2022-08-10T23:18:22.361Z,99062.78
2022-08-10T23:23:31.987Z,99064.13
2022-08-10T23:29:03.273Z,99055.25
2022-08-10T23:34:05.947Z,99042.59
2022-08-10T23:39:26.163Z,99053.25
2022-08-10T23:44:39.042Z,99055.09
2022-08-10T23:49:45.174Z,99043.03
2022-08-10T23:55:00.233Z,99044.22
